sensor_id;sensor_type;location;lat;lon;timestamp;pressure;altitude;pressure_sealevel;temperature;humidity
73518;BME280;61766;60.318;25.044;2022-10-31T00:01:14;101403.90;;;6.30;36.18
73518;BME280;61766;60.318;25.044;2022-10-31T00:03:38;101408.36;;;6.21;36.38
73518;BME280;61766;60.318;25.044;2022-10-31T00:06:03;101408.71;;;6.16;36.41
73518;BME280;61766;60.318;25.044;2022-10-31T00:08:28;101411.00;;;5.87;36.44
73518;BME280;61766;60.318;25.044;2022-10-31T00:10:53;101415.85;;;6.07;36.44
73518;BME280;61766;60.318;25.044;2022-10-31T00:13:19;101418.50;;;6.06;36.43
73518;BME280;61766;60.318;25.044;2022-10-31T00:15:44;101422.22;;;5.98;36.44
73518;BME280;61766;60.318;25.044;2022-10-31T00:18:10;101424.70;;;5.75;36.60
73518;BME280;61766;60.318;25.044;2022-10-31T00:20:35;101427.79;;;5.32;37.03
73518;BME280;61766;60.318;25.044;2022-10-31T00:23:01;101429.10;;;5.79;37.00
73518;BME280;61766;60.318;25.044;2022-10-31T00:25:25;101428.14;;;5.78;36.93
73518;BME280;61766;60.318;25.044;2022-10-31T00:27:50;101433.03;;;5.78;36.99
73518;BME280;61766;60.318;25.044;2022-10-31T00:30:16;101432.74;;;5.37;37.00
73518;BME280;61766;60.318;25.044;2022-10-31T00:32:41;101428.96;;;5.62;37.17
73518;BME280;61766;60.318;25.044;2022-10-31T00:35:07;101430.22;;;5.92;37.31
73518;BME280;61766;60.318;25.044;2022-10-31T00:37:31;101431.88;;;5.72;37.62
73518;BME280;61766;60.318;25.044;2022-10-31T00:39:56;101431.90;;;5.79;37.22
73518;BME280;61766;60.318;25.044;2022-10-31T00:42:22;101435.26;;;5.97;37.24
73518;BME280;61766;60.318;25.044;2022-10-31T00:44:47;101440.84;;;5.77;37.06
73518;BME280;61766;60.318;25.044;2022-10-31T00:47:12;101442.50;;;5.65;36.94
73518;BME280;61766;60.318;25.044;2022-10-31T00:49:37;101443.79;;;5.41;37.28
73518;BME280;61766;60.318;25.044;2022-10-31T00:52:03;101441.73;;;5.18;37.74
73518;BME280;61766;60.318;25.044;2022-10-31T00:54:28;101443.57;;;5.01;38.13
73518;BME280;61766;60.318;25.044;2022-10-31T00:56:53;101441.45;;;5.14;37.86
73518;BME280;61766;60.318;25.044;2022-10-31T00:59:18;101439.27;;;5.21;37.69
73518;BME280;61766;60.318;25.044;2022-10-31T01:01:43;101440.98;;;5.20;37.65
73518;BME280;61766;60.318;25.044;2022-10-31T01:04:09;101444.74;;;5.10;37.82
73518;BME280;61766;60.318;25.044;2022-10-31T01:06:34;101446.34;;;4.64;38.52
73518;BME280;61766;60.318;25.044;2022-10-31T01:08:59;101444.24;;;4.79;38.48
73518;BME280;61766;60.318;25.044;2022-10-31T01:11:26;101442.40;;;4.95;38.16
73518;BME280;61766;60.318;25.044;2022-10-31T01:13:50;101447.92;;;5.11;37.92
73518;BME280;61766;60.318;25.044;2022-10-31T01:16:18;101453.02;;;5.22;38.15
73518;BME280;61766;60.318;25.044;2022-10-31T01:18:41;101452.68;;;5.25;38.72
73518;BME280;61766;60.318;25.044;2022-10-31T01:21:08;101448.84;;;5.36;38.98
73518;BME280;61766;60.318;25.044;2022-10-31T01:23:31;101447.97;;;5.55;38.73
73518;BME280;61766;60.318;25.044;2022-10-31T01:26:02;101449.00;;;5.49;38.33
73518;BME280;61766;60.318;25.044;2022-10-31T01:28:21;101448.20;;;5.89;38.60
73518;BME280;61766;60.318;25.044;2022-10-31T01:30:46;101448.34;;;5.62;38.90
73518;BME280;61766;60.318;25.044;2022-10-31T01:33:12;101452.60;;;5.57;38.53
73518;BME280;61766;60.318;25.044;2022-10-31T01:35:37;101457.61;;;5.62;38.56
73518;BME280;61766;60.318;25.044;2022-10-31T01:38:02;101459.16;;;5.99;38.82
73518;BME280;61766;60.318;25.044;2022-10-31T01:40:29;101464.03;;;5.80;38.41
73518;BME280;61766;60.318;25.044;2022-10-31T01:42:52;101470.03;;;5.95;38.59
73518;BME280;61766;60.318;25.044;2022-10-31T01:45:18;101471.32;;;6.03;38.21
73518;BME280;61766;60.318;25.044;2022-10-31T01:47:45;101470.62;;;6.12;38.29
73518;BME280;61766;60.318;25.044;2022-10-31T01:50:15;101465.10;;;6.11;37.91
73518;BME280;61766;60.318;25.044;2022-10-31T01:52:36;101466.39;;;6.07;37.94
73518;BME280;61766;60.318;25.044;2022-10-31T01:55:03;101467.20;;;6.11;37.82
73518;BME280;61766;60.318;25.044;2022-10-31T01:57:25;101468.63;;;6.20;37.64
73518;BME280;61766;60.318;25.044;2022-10-31T01:59:52;101475.12;;;6.23;38.08
73518;BME280;61766;60.318;25.044;2022-10-31T02:02:15;101476.44;;;6.25;37.63
73518;BME280;61766;60.318;25.044;2022-10-31T02:04:40;101474.37;;;6.24;37.69
73518;BME280;61766;60.318;25.044;2022-10-31T02:07:07;101471.72;;;6.23;37.33
73518;BME280;61766;60.318;25.044;2022-10-31T02:09:32;101476.52;;;5.88;37.17
73518;BME280;61766;60.318;25.044;2022-10-31T02:11:57;101479.87;;;5.90;37.93
73518;BME280;61766;60.318;25.044;2022-10-31T02:14:21;101480.51;;;5.84;37.52
73518;BME280;61766;60.318;25.044;2022-10-31T02:16:46;101478.14;;;5.61;37.21
73518;BME280;61766;60.318;25.044;2022-10-31T02:19:13;101476.32;;;5.52;37.11
73518;BME280;61766;60.318;25.044;2022-10-31T02:21:42;101475.46;;;5.50;37.12
73518;BME280;61766;60.318;25.044;2022-10-31T02:24:17;101472.27;;;5.73;36.83
73518;BME280;61766;60.318;25.044;2022-10-31T02:26:42;101473.90;;;5.68;36.92
73518;BME280;61766;60.318;25.044;2022-10-31T02:29:05;101480.20;;;5.53;37.07
73518;BME280;61766;60.318;25.044;2022-10-31T02:31:27;101492.18;;;5.34;37.92
73518;BME280;61766;60.318;25.044;2022-10-31T02:33:48;101495.24;;;5.03;37.81
73518;BME280;61766;60.318;25.044;2022-10-31T02:36:16;101490.85;;;5.02;37.78
73518;BME280;61766;60.318;25.044;2022-10-31T02:38:43;101486.16;;;5.05;37.68
73518;BME280;61766;60.318;25.044;2022-10-31T02:41:05;101482.78;;;4.96;37.73
73518;BME280;61766;60.318;25.044;2022-10-31T02:43:26;101482.31;;;4.90;37.88
73518;BME280;61766;60.318;25.044;2022-10-31T02:45:54;101480.73;;;5.01;37.87
73518;BME280;61766;60.318;25.044;2022-10-31T02:48:18;101478.15;;;4.80;37.73
73518;BME280;61766;60.318;25.044;2022-10-31T02:50:43;101483.04;;;4.99;37.60
73518;BME280;61766;60.318;25.044;2022-10-31T02:53:06;101485.95;;;4.94;37.58
73518;BME280;61766;60.318;25.044;2022-10-31T02:55:44;101494.96;;;4.72;38.15
73518;BME280;61766;60.318;25.044;2022-10-31T02:57:59;101499.66;;;4.72;38.41
73518;BME280;61766;60.318;25.044;2022-10-31T03:00:21;101497.75;;;4.78;37.58
73518;BME280;61766;60.318;25.044;2022-10-31T03:02:55;101501.12;;;4.85;37.63
73518;BME280;61766;60.318;25.044;2022-10-31T03:05:23;101505.94;;;4.90;37.32
73518;BME280;61766;60.318;25.044;2022-10-31T03:07:42;101507.80;;;4.92;37.14
73518;BME280;61766;60.318;25.044;2022-10-31T03:10:09;101513.11;;;4.81;37.20
73518;BME280;61766;60.318;25.044;2022-10-31T03:12:34;101514.29;;;4.86;36.91
73518;BME280;61766;60.318;25.044;2022-10-31T03:14:58;101510.23;;;5.08;36.90
73518;BME280;61766;60.318;25.044;2022-10-31T03:17:22;101508.10;;;4.79;37.10
73518;BME280;61766;60.318;25.044;2022-10-31T03:19:46;101510.68;;;4.74;37.48
73518;BME280;61766;60.318;25.044;2022-10-31T03:22:15;101517.07;;;4.68;37.56
73518;BME280;61766;60.318;25.044;2022-10-31T03:24:38;101515.40;;;4.73;37.31
73518;BME280;61766;60.318;25.044;2022-10-31T03:27:01;101510.44;;;4.40;38.15
73518;BME280;61766;60.318;25.044;2022-10-31T03:29:27;101504.33;;;3.92;39.92
73518;BME280;61766;60.318;25.044;2022-10-31T03:31:53;101510.60;;;4.07;38.60
73518;BME280;61766;60.318;25.044;2022-10-31T03:34:16;101520.71;;;3.69;39.30
73518;BME280;61766;60.318;25.044;2022-10-31T03:36:43;101517.70;;;3.88;38.94
73518;BME280;61766;60.318;25.044;2022-10-31T03:39:09;101507.27;;;3.92;38.78
73518;BME280;61766;60.318;25.044;2022-10-31T03:41:35;101511.54;;;3.86;39.00
73518;BME280;61766;60.318;25.044;2022-10-31T03:44:02;101514.41;;;4.05;38.96
73518;BME280;61766;60.318;25.044;2022-10-31T03:46:22;101519.29;;;3.79;39.69
73518;BME280;61766;60.318;25.044;2022-10-31T03:48:47;101523.45;;;3.71;39.30
73518;BME280;61766;60.318;25.044;2022-10-31T03:51:18;101522.35;;;4.01;38.77
73518;BME280;61766;60.318;25.044;2022-10-31T03:53:40;101522.89;;;3.94;38.42
73518;BME280;61766;60.318;25.044;2022-10-31T03:56:07;101526.86;;;4.09;38.27
73518;BME280;61766;60.318;25.044;2022-10-31T03:58:32;101528.47;;;3.86;38.17
73518;BME280;61766;60.318;25.044;2022-10-31T04:00:55;101528.27;;;4.11;37.87
73518;BME280;61766;60.318;25.044;2022-10-31T04:03:21;101529.76;;;4.08;38.04
73518;BME280;61766;60.318;25.044;2022-10-31T04:05:46;101530.61;;;3.65;37.78
73518;BME280;61766;60.318;25.044;2022-10-31T04:08:13;101537.62;;;3.98;38.26
73518;BME280;61766;60.318;25.044;2022-10-31T04:10:36;101544.20;;;3.95;38.53
73518;BME280;61766;60.318;25.044;2022-10-31T04:13:04;101541.95;;;3.84;38.10
73518;BME280;61766;60.318;25.044;2022-10-31T04:15:25;101540.81;;;3.96;37.73
73518;BME280;61766;60.318;25.044;2022-10-31T04:17:51;101543.84;;;3.89;37.36
73518;BME280;61766;60.318;25.044;2022-10-31T04:20:28;101540.46;;;3.95;37.28
73518;BME280;61766;60.318;25.044;2022-10-31T04:22:41;101544.75;;;3.95;37.23
73518;BME280;61766;60.318;25.044;2022-10-31T04:25:07;101544.69;;;3.92;37.36
73518;BME280;61766;60.318;25.044;2022-10-31T04:27:31;101551.73;;;3.85;37.20
73518;BME280;61766;60.318;25.044;2022-10-31T04:29:56;101548.37;;;4.36;36.85
73518;BME280;61766;60.318;25.044;2022-10-31T04:32:22;101544.24;;;4.23;36.90
73518;BME280;61766;60.318;25.044;2022-10-31T04:34:47;101548.52;;;4.13;37.15
73518;BME280;61766;60.318;25.044;2022-10-31T04:37:12;101550.64;;;3.91;36.99
73518;BME280;61766;60.318;25.044;2022-10-31T04:39:37;101553.63;;;3.88;36.95
73518;BME280;61766;60.318;25.044;2022-10-31T04:42:03;101560.27;;;4.10;37.02
73518;BME280;61766;60.318;25.044;2022-10-31T04:44:28;101561.63;;;4.10;36.79
73518;BME280;61766;60.318;25.044;2022-10-31T04:46:53;101566.52;;;3.87;36.87
73518;BME280;61766;60.318;25.044;2022-10-31T04:49:19;101571.85;;;3.83;36.96
73518;BME280;61766;60.318;25.044;2022-10-31T04:51:44;101580.93;;;3.85;37.40
73518;BME280;61766;60.318;25.044;2022-10-31T04:54:09;101585.43;;;3.84;37.30
73518;BME280;61766;60.318;25.044;2022-10-31T04:56:34;101585.33;;;3.56;37.52
73518;BME280;61766;60.318;25.044;2022-10-31T04:59:00;101590.04;;;3.64;37.53
73518;BME280;61766;60.318;25.044;2022-10-31T05:01:25;101594.54;;;3.65;37.79
73518;BME280;61766;60.318;25.044;2022-10-31T05:03:50;101593.71;;;3.72;37.34
73518;BME280;61766;60.318;25.044;2022-10-31T05:06:15;101593.77;;;3.66;37.57
73518;BME280;61766;60.318;25.044;2022-10-31T05:08:41;101600.29;;;3.09;38.70
73518;BME280;61766;60.318;25.044;2022-10-31T05:11:07;101597.93;;;2.97;38.86
73518;BME280;61766;60.318;25.044;2022-10-31T05:13:32;101597.13;;;2.98;38.90
73518;BME280;61766;60.318;25.044;2022-10-31T05:15:57;101595.86;;;3.08;38.82
73518;BME280;61766;60.318;25.044;2022-10-31T05:18:23;101591.92;;;3.17;38.63
73518;BME280;61766;60.318;25.044;2022-10-31T05:20:48;101592.27;;;3.34;38.41
73518;BME280;61766;60.318;25.044;2022-10-31T05:23:14;101590.52;;;3.42;38.40
73518;BME280;61766;60.318;25.044;2022-10-31T05:25:40;101590.07;;;3.32;38.23
73518;BME280;61766;60.318;25.044;2022-10-31T05:28:05;101581.23;;;3.25;38.27
73518;BME280;61766;60.318;25.044;2022-10-31T05:30:32;101582.64;;;3.61;37.89
73518;BME280;61766;60.318;25.044;2022-10-31T05:32:57;101587.10;;;3.07;38.28
73518;BME280;61766;60.318;25.044;2022-10-31T05:35:24;101594.24;;;3.20;38.54
73518;BME280;61766;60.318;25.044;2022-10-31T05:37:48;101594.99;;;3.30;38.52
73518;BME280;61766;60.318;25.044;2022-10-31T05:40:14;101599.96;;;3.27;38.47
73518;BME280;61766;60.318;25.044;2022-10-31T05:42:38;101601.61;;;2.87;38.30
73518;BME280;61766;60.318;25.044;2022-10-31T05:45:03;101599.44;;;3.47;37.89
73518;BME280;61766;60.318;25.044;2022-10-31T05:47:28;101601.83;;;3.58;37.66
73518;BME280;61766;60.318;25.044;2022-10-31T05:49:53;101600.51;;;3.21;37.25
73518;BME280;61766;60.318;25.044;2022-10-31T05:52:19;101596.79;;;3.78;37.17
73518;BME280;61766;60.318;25.044;2022-10-31T05:54:44;101593.52;;;3.57;37.87
73518;BME280;61766;60.318;25.044;2022-10-31T05:57:09;101602.37;;;3.42;37.41
73518;BME280;61766;60.318;25.044;2022-10-31T05:59:35;101617.80;;;2.98;38.41
73518;BME280;61766;60.318;25.044;2022-10-31T06:02:01;101615.48;;;3.16;38.49
73518;BME280;61766;60.318;25.044;2022-10-31T06:04:25;101613.06;;;3.28;38.38
73518;BME280;61766;60.318;25.044;2022-10-31T06:06:50;101609.85;;;2.98;38.34
73518;BME280;61766;60.318;25.044;2022-10-31T06:09:16;101601.92;;;3.16;39.40
73518;BME280;61766;60.318;25.044;2022-10-31T06:11:41;101599.58;;;3.25;40.28
73518;BME280;61766;60.318;25.044;2022-10-31T06:14:07;101593.02;;;3.49;39.12
73518;BME280;61766;60.318;25.044;2022-10-31T06:16:32;101602.23;;;3.33;38.89
73518;BME280;61766;60.318;25.044;2022-10-31T06:18:57;101608.14;;;2.72;39.44
73518;BME280;61766;60.318;25.044;2022-10-31T06:21:23;101606.76;;;2.92;39.32
73518;BME280;61766;60.318;25.044;2022-10-31T06:23:48;101605.78;;;2.86;38.91
73518;BME280;61766;60.318;25.044;2022-10-31T06:26:13;101608.38;;;3.24;38.95
73518;BME280;61766;60.318;25.044;2022-10-31T06:28:38;101604.47;;;3.35;38.72
73518;BME280;61766;60.318;25.044;2022-10-31T06:31:04;101596.94;;;3.24;38.66
73518;BME280;61766;60.318;25.044;2022-10-31T06:33:29;101609.77;;;3.21;38.90
73518;BME280;61766;60.318;25.044;2022-10-31T06:35:55;101616.13;;;3.21;39.17
73518;BME280;61766;60.318;25.044;2022-10-31T06:38:21;101622.01;;;3.33;39.66
73518;BME280;61766;60.318;25.044;2022-10-31T06:40:46;101634.59;;;3.63;39.62
73518;BME280;61766;60.318;25.044;2022-10-31T06:43:12;101638.86;;;3.85;39.24
73518;BME280;61766;60.318;25.044;2022-10-31T06:45:37;101637.17;;;3.93;39.37
73518;BME280;61766;60.318;25.044;2022-10-31T06:48:03;101633.13;;;3.85;39.59
73518;BME280;61766;60.318;25.044;2022-10-31T06:50:28;101630.23;;;4.00;40.27
73518;BME280;61766;60.318;25.044;2022-10-31T06:52:54;101631.77;;;4.13;41.07
73518;BME280;61766;60.318;25.044;2022-10-31T06:55:18;101633.40;;;3.99;41.10
73518;BME280;61766;60.318;25.044;2022-10-31T06:57:48;101638.38;;;4.27;40.90
73518;BME280;61766;60.318;25.044;2022-10-31T07:00:11;101636.13;;;4.67;40.06
73518;BME280;61766;60.318;25.044;2022-10-31T07:02:35;101631.82;;;4.72;39.76
73518;BME280;61766;60.318;25.044;2022-10-31T07:05:00;101631.77;;;4.74;40.30
73518;BME280;61766;60.318;25.044;2022-10-31T07:07:26;101631.49;;;5.06;40.89
73518;BME280;61766;60.318;25.044;2022-10-31T07:09:51;101636.46;;;5.17;40.73
73518;BME280;61766;60.318;25.044;2022-10-31T07:12:16;101634.27;;;5.41;39.59
73518;BME280;61766;60.318;25.044;2022-10-31T07:14:42;101642.30;;;5.80;40.12
73518;BME280;61766;60.318;25.044;2022-10-31T07:17:08;101648.50;;;6.14;39.88
73518;BME280;61766;60.318;25.044;2022-10-31T07:19:33;101650.66;;;6.05;38.95
73518;BME280;61766;60.318;25.044;2022-10-31T07:21:59;101651.98;;;6.32;38.12
73518;BME280;61766;60.318;25.044;2022-10-31T07:24:23;101656.22;;;6.66;38.27
73518;BME280;61766;60.318;25.044;2022-10-31T07:26:49;101660.17;;;6.52;38.26
73518;BME280;61766;60.318;25.044;2022-10-31T07:29:14;101660.28;;;6.61;38.45
73518;BME280;61766;60.318;25.044;2022-10-31T07:31:40;101666.31;;;6.55;38.55
73518;BME280;61766;60.318;25.044;2022-10-31T07:34:05;101664.95;;;6.96;37.82
73518;BME280;61766;60.318;25.044;2022-10-31T07:36:30;101664.57;;;6.99;38.08
73518;BME280;61766;60.318;25.044;2022-10-31T07:38:56;101665.66;;;7.21;38.60
73518;BME280;61766;60.318;25.044;2022-10-31T07:41:21;101657.97;;;7.29;38.67
73518;BME280;61766;60.318;25.044;2022-10-31T07:43:46;101661.56;;;7.34;38.82
73518;BME280;61766;60.318;25.044;2022-10-31T07:46:12;101662.82;;;7.70;38.55
73518;BME280;61766;60.318;25.044;2022-10-31T07:48:38;101662.12;;;7.75;38.84
73518;BME280;61766;60.318;25.044;2022-10-31T07:51:03;101663.79;;;8.14;38.32
73518;BME280;61766;60.318;25.044;2022-10-31T07:53:28;101670.36;;;8.57;37.51
73518;BME280;61766;60.318;25.044;2022-10-31T07:55:54;101669.24;;;8.77;37.35
73518;BME280;61766;60.318;25.044;2022-10-31T07:58:20;101668.26;;;9.30;36.73
73518;BME280;61766;60.318;25.044;2022-10-31T08:00:46;101672.20;;;9.34;36.74
73518;BME280;61766;60.318;25.044;2022-10-31T08:03:12;101671.96;;;9.28;36.41
73518;BME280;61766;60.318;25.044;2022-10-31T08:05:36;101668.48;;;9.40;36.42
73518;BME280;61766;60.318;25.044;2022-10-31T08:08:01;101669.77;;;9.62;36.70
73518;BME280;61766;60.318;25.044;2022-10-31T08:10:27;101675.13;;;9.33;36.74
73518;BME280;61766;60.318;25.044;2022-10-31T08:13:00;101677.65;;;9.27;36.89
73518;BME280;61766;60.318;25.044;2022-10-31T08:15:17;101679.58;;;9.30;37.36
73518;BME280;61766;60.318;25.044;2022-10-31T08:17:42;101686.85;;;9.64;36.88
73518;BME280;61766;60.318;25.044;2022-10-31T08:20:09;101688.70;;;9.71;36.60
73518;BME280;61766;60.318;25.044;2022-10-31T08:22:33;101692.46;;;9.15;36.90
73518;BME280;61766;60.318;25.044;2022-10-31T08:24:59;101696.04;;;9.13;38.17
73518;BME280;61766;60.318;25.044;2022-10-31T08:27:24;101695.97;;;8.81;38.59
73518;BME280;61766;60.318;25.044;2022-10-31T08:29:49;101691.40;;;9.03;37.48
73518;BME280;61766;60.318;25.044;2022-10-31T08:32:14;101688.91;;;9.06;37.46
73518;BME280;61766;60.318;25.044;2022-10-31T08:34:40;101694.05;;;9.41;37.38
73518;BME280;61766;60.318;25.044;2022-10-31T08:37:05;101695.10;;;9.77;37.02
73518;BME280;61766;60.318;25.044;2022-10-31T08:39:31;101700.06;;;9.90;37.14
73518;BME280;61766;60.318;25.044;2022-10-31T08:41:57;101694.92;;;10.42;36.03
73518;BME280;61766;60.318;25.044;2022-10-31T08:44:22;101697.99;;;10.51;35.82
73518;BME280;61766;60.318;25.044;2022-10-31T08:46:48;101701.76;;;11.03;34.98
73518;BME280;61766;60.318;25.044;2022-10-31T08:49:13;101698.22;;;11.47;34.60
73518;BME280;61766;60.318;25.044;2022-10-31T08:51:39;101695.78;;;11.56;34.26
73518;BME280;61766;60.318;25.044;2022-10-31T08:54:04;101690.84;;;11.91;34.12
73518;BME280;61766;60.318;25.044;2022-10-31T08:56:29;101687.14;;;11.83;33.53
73518;BME280;61766;60.318;25.044;2022-10-31T08:58:55;101684.75;;;11.83;32.88
73518;BME280;61766;60.318;25.044;2022-10-31T09:01:20;101689.50;;;12.25;32.93
73518;BME280;61766;60.318;25.044;2022-10-31T09:03:45;101694.84;;;12.26;32.56
73518;BME280;61766;60.318;25.044;2022-10-31T09:06:10;101703.61;;;12.50;32.02
73518;BME280;61766;60.318;25.044;2022-10-31T09:08:35;101705.41;;;12.86;32.16
73518;BME280;61766;60.318;25.044;2022-10-31T09:11:00;101711.55;;;12.84;31.55
73518;BME280;61766;60.318;25.044;2022-10-31T09:13:25;101711.35;;;13.39;31.74
73518;BME280;61766;60.318;25.044;2022-10-31T09:15:51;101709.18;;;13.44;31.12
73518;BME280;61766;60.318;25.044;2022-10-31T09:18:17;101704.49;;;13.57;30.90
73518;BME280;61766;60.318;25.044;2022-10-31T09:20:42;101694.11;;;13.86;30.23
73518;BME280;61766;60.318;25.044;2022-10-31T09:23:10;101689.98;;;13.24;30.63
73518;BME280;61766;60.318;25.044;2022-10-31T09:25:33;101687.09;;;13.68;30.51
73518;BME280;61766;60.318;25.044;2022-10-31T09:28:00;101695.37;;;13.46;30.17
73518;BME280;61766;60.318;25.044;2022-10-31T09:30:25;101684.93;;;13.32;30.55
73518;BME280;61766;60.318;25.044;2022-10-31T09:32:54;101674.78;;;13.62;30.58
73518;BME280;61766;60.318;25.044;2022-10-31T09:35:15;101674.96;;;13.54;30.49
73518;BME280;61766;60.318;25.044;2022-10-31T09:37:41;101680.39;;;13.85;30.17
73518;BME280;61766;60.318;25.044;2022-10-31T09:40:08;101677.36;;;13.98;30.45
73518;BME280;61766;60.318;25.044;2022-10-31T09:42:44;101672.61;;;13.97;30.76
73518;BME280;61766;60.318;25.044;2022-10-31T09:45:05;101674.84;;;13.52;30.06
73518;BME280;61766;60.318;25.044;2022-10-31T09:47:32;101674.85;;;13.63;30.33
73518;BME280;61766;60.318;25.044;2022-10-31T09:50:06;101673.72;;;13.67;29.85
73518;BME280;61766;60.318;25.044;2022-10-31T09:52:21;101672.35;;;14.11;29.85
73518;BME280;61766;60.318;25.044;2022-10-31T09:54:45;101679.59;;;13.57;30.79
73518;BME280;61766;60.318;25.044;2022-10-31T09:57:10;101680.26;;;13.78;29.88
73518;BME280;61766;60.318;25.044;2022-10-31T09:59:34;101671.72;;;13.53;29.30
73518;BME280;61766;60.318;25.044;2022-10-31T10:02:02;101673.21;;;13.78;29.32
73518;BME280;61766;60.318;25.044;2022-10-31T10:04:34;101673.12;;;13.75;29.63
73518;BME280;61766;60.318;25.044;2022-10-31T10:06:53;101680.12;;;14.11;30.19
73518;BME280;61766;60.318;25.044;2022-10-31T10:09:24;101685.34;;;13.56;29.58
73518;BME280;61766;60.318;25.044;2022-10-31T10:11:52;101685.81;;;13.40;30.90
73518;BME280;61766;60.318;25.044;2022-10-31T10:14:19;101687.71;;;13.51;30.70
73518;BME280;61766;60.318;25.044;2022-10-31T10:16:46;101685.05;;;13.81;29.90
73518;BME280;61766;60.318;25.044;2022-10-31T10:19:10;101683.71;;;14.30;29.76
73518;BME280;61766;60.318;25.044;2022-10-31T10:21:36;101686.39;;;14.62;29.69
73518;BME280;61766;60.318;25.044;2022-10-31T10:23:59;101685.22;;;14.71;29.04
73518;BME280;61766;60.318;25.044;2022-10-31T10:26:21;101687.86;;;15.25;28.72
73518;BME280;61766;60.318;25.044;2022-10-31T10:28:45;101683.66;;;14.99;28.82
73518;BME280;61766;60.318;25.044;2022-10-31T10:31:13;101680.56;;;15.15;28.07
73518;BME280;61766;60.318;25.044;2022-10-31T10:33:37;101679.73;;;15.06;28.29
73518;BME280;61766;60.318;25.044;2022-10-31T10:36:04;101676.60;;;15.27;27.96
73518;BME280;61766;60.318;25.044;2022-10-31T10:38:30;101675.29;;;14.41;29.48
73518;BME280;61766;60.318;25.044;2022-10-31T10:40:52;101673.11;;;13.94;29.25
73518;BME280;61766;60.318;25.044;2022-10-31T10:43:23;101672.27;;;13.53;30.28
73518;BME280;61766;60.318;25.044;2022-10-31T10:45:46;101675.05;;;14.04;29.71
73518;BME280;61766;60.318;25.044;2022-10-31T10:48:14;101667.15;;;14.14;29.05
73518;BME280;61766;60.318;25.044;2022-10-31T10:50:39;101661.69;;;14.22;29.12
73518;BME280;61766;60.318;25.044;2022-10-31T10:53:06;101662.15;;;14.47;28.19
73518;BME280;61766;60.318;25.044;2022-10-31T10:55:32;101670.45;;;14.76;28.88
73518;BME280;61766;60.318;25.044;2022-10-31T10:57:58;101664.94;;;13.91;29.76
73518;BME280;61766;60.318;25.044;2022-10-31T11:00:21;101664.19;;;13.69;29.26
73518;BME280;61766;60.318;25.044;2022-10-31T11:02:44;101662.44;;;14.17;29.33
73518;BME280;61766;60.318;25.044;2022-10-31T11:05:22;101655.23;;;14.72;28.50
73518;BME280;61766;60.318;25.044;2022-10-31T11:07:41;101647.57;;;13.96;28.81
73518;BME280;61766;60.318;25.044;2022-10-31T11:10:11;101642.91;;;14.02;29.02
73518;BME280;61766;60.318;25.044;2022-10-31T11:12:32;101643.79;;;14.24;28.76
73518;BME280;61766;60.318;25.044;2022-10-31T11:14:55;101643.53;;;14.67;28.69
73518;BME280;61766;60.318;25.044;2022-10-31T11:17:26;101647.06;;;14.78;28.38
73518;BME280;61766;60.318;25.044;2022-10-31T11:19:45;101643.89;;;14.78;27.48
73518;BME280;61766;60.318;25.044;2022-10-31T11:22:16;101641.62;;;14.38;27.71
73518;BME280;61766;60.318;25.044;2022-10-31T11:24:41;101635.12;;;14.59;28.12
73518;BME280;61766;60.318;25.044;2022-10-31T11:27:14;101642.40;;;14.13;28.18
73518;BME280;61766;60.318;25.044;2022-10-31T11:29:29;101641.87;;;13.80;28.82
73518;BME280;61766;60.318;25.044;2022-10-31T11:31:55;101641.31;;;13.96;28.12
73518;BME280;61766;60.318;25.044;2022-10-31T11:34:28;101638.97;;;14.50;27.69
73518;BME280;61766;60.318;25.044;2022-10-31T11:36:47;101636.47;;;14.60;27.68
73518;BME280;61766;60.318;25.044;2022-10-31T11:39:22;101637.91;;;14.16;28.47
73518;BME280;61766;60.318;25.044;2022-10-31T11:41:39;101642.72;;;13.51;29.51
73518;BME280;61766;60.318;25.044;2022-10-31T11:44:05;101639.45;;;13.18;29.36
73518;BME280;61766;60.318;25.044;2022-10-31T11:46:34;101646.12;;;13.80;29.75
73518;BME280;61766;60.318;25.044;2022-10-31T11:48:56;101644.24;;;13.29;30.07
73518;BME280;61766;60.318;25.044;2022-10-31T11:51:24;101642.18;;;13.09;30.66
73518;BME280;61766;60.318;25.044;2022-10-31T11:53:54;101645.07;;;13.52;30.88
73518;BME280;61766;60.318;25.044;2022-10-31T11:56:15;101644.27;;;13.05;30.51
73518;BME280;61766;60.318;25.044;2022-10-31T11:58:38;101650.77;;;13.32;30.66
73518;BME280;61766;60.318;25.044;2022-10-31T12:01:04;101650.75;;;12.75;31.12
73518;BME280;61766;60.318;25.044;2022-10-31T12:03:38;101649.68;;;13.04;31.23
73518;BME280;61766;60.318;25.044;2022-10-31T12:06:00;101653.99;;;12.67;32.30
73518;BME280;61766;60.318;25.044;2022-10-31T12:08:21;101650.59;;;13.41;31.99
73518;BME280;61766;60.318;25.044;2022-10-31T12:10:58;101648.22;;;13.33;31.88
73518;BME280;61766;60.318;25.044;2022-10-31T12:15:41;101654.98;;;12.02;34.05
73518;BME280;61766;60.318;25.044;2022-10-31T12:18:21;101650.36;;;11.35;35.32
73518;BME280;61766;60.318;25.044;2022-10-31T12:20:39;101648.54;;;11.63;35.39
73518;BME280;61766;60.318;25.044;2022-10-31T12:23:03;101652.65;;;12.09;34.79
73518;BME280;61766;60.318;25.044;2022-10-31T12:25:32;101653.78;;;11.00;34.10
73518;BME280;61766;60.318;25.044;2022-10-31T12:30:19;101636.53;;;12.51;32.86
73518;BME280;61766;60.318;25.044;2022-10-31T12:35:25;101633.47;;;12.77;33.46
73518;BME280;61766;60.318;25.044;2022-10-31T12:37:42;101640.35;;;11.57;34.84
73518;BME280;61766;60.318;25.044;2022-10-31T12:40:07;101634.64;;;12.28;34.77
73518;BME280;61766;60.318;25.044;2022-10-31T12:42:33;101629.24;;;11.89;34.64
73518;BME280;61766;60.318;25.044;2022-10-31T12:45:10;101630.90;;;12.00;34.54